Авиационная погода в Новокузнецке

СКИДКИ НА СМАРТФОНЫ!

Регион: 
Погода METAR: 
UNWW 190100Z 06001MPS CAVOK 08/08 Q1013 R19/09//60 NOSIG RMK QFE732
Время наблюдения
2022-08-19T01:00:00Z
Температура C
8.0
Точка росы
8.0
Направление ветра
60
Скорость ветра (узлы)
2
Метео видимость
6.21
Облачность
CAVOK
Нижняя граница облачности (футы)
Явления погоды
Условия полета
VFR
Аэропорт подробнее: 

Скидки на навигаторы!